sensor_id;sensor_type;location;lat;lon;timestamp;P1;durP1;ratioP1;P2;durP2;ratioP2
13406;SDS011;6774;48.208;10.766;2022-08-30T00:02:21;4.03;;;3.83;;
13406;SDS011;6774;48.208;10.766;2022-08-30T00:04:51;4.20;;;3.93;;
13406;SDS011;6774;48.208;10.766;2022-08-30T00:07:20;5.20;;;4.90;;
13406;SDS011;6774;48.208;10.766;2022-08-30T00:09:48;6.43;;;6.07;;
13406;SDS011;6774;48.208;10.766;2022-08-30T00:12:16;5.77;;;5.47;;
13406;SDS011;6774;48.208;10.766;2022-08-30T00:14:46;7.17;;;5.43;;
13406;SDS011;6774;48.208;10.766;2022-08-30T00:17:14;5.00;;;4.70;;
13406;SDS011;6774;48.208;10.766;2022-08-30T00:19:44;5.07;;;4.77;;
13406;SDS011;6774;48.208;10.766;2022-08-30T00:22:12;3.80;;;3.60;;
13406;SDS011;6774;48.208;10.766;2022-08-30T00:24:40;3.93;;;3.73;;
13406;SDS011;6774;48.208;10.766;2022-08-30T00:27:08;4.50;;;4.30;;
13406;SDS011;6774;48.208;10.766;2022-08-30T00:29:36;4.47;;;4.20;;
13406;SDS011;6774;48.208;10.766;2022-08-30T00:32:04;5.63;;;5.33;;
13406;SDS011;6774;48.208;10.766;2022-08-30T00:34:32;6.57;;;5.70;;
13406;SDS011;6774;48.208;10.766;2022-08-30T00:37:02;6.10;;;5.80;;
13406;SDS011;6774;48.208;10.766;2022-08-30T00:39:29;6.17;;;5.80;;
13406;SDS011;6774;48.208;10.766;2022-08-30T00:41:58;5.90;;;5.60;;
13406;SDS011;6774;48.208;10.766;2022-08-30T00:44:26;6.37;;;5.87;;
13406;SDS011;6774;48.208;10.766;2022-08-30T00:46:54;5.70;;;5.30;;
13406;SDS011;6774;48.208;10.766;2022-08-30T00:49:21;3.50;;;3.30;;
13406;SDS011;6774;48.208;10.766;2022-08-30T00:51:51;3.07;;;2.97;;
13406;SDS011;6774;48.208;10.766;2022-08-30T00:54:21;2.63;;;2.53;;
13406;SDS011;6774;48.208;10.766;2022-08-30T00:56:51;3.70;;;3.50;;
13406;SDS011;6774;48.208;10.766;2022-08-30T00:59:19;3.70;;;3.50;;
13406;SDS011;6774;48.208;10.766;2022-08-30T01:01:49;3.57;;;3.37;;
13406;SDS011;6774;48.208;10.766;2022-08-30T01:04:17;6.30;;;5.70;;
13406;SDS011;6774;48.208;10.766;2022-08-30T01:06:46;5.47;;;5.17;;
13406;SDS011;6774;48.208;10.766;2022-08-30T01:09:14;4.50;;;4.23;;
13406;SDS011;6774;48.208;10.766;2022-08-30T01:11:44;4.00;;;3.80;;
13406;SDS011;6774;48.208;10.766;2022-08-30T01:14:13;3.53;;;3.33;;
13406;SDS011;6774;48.208;10.766;2022-08-30T01:16:42;1.97;;;1.87;;
13406;SDS011;6774;48.208;10.766;2022-08-30T01:19:15;1.80;;;1.70;;
13406;SDS011;6774;48.208;10.766;2022-08-30T01:21:53;1.93;;;1.83;;
13406;SDS011;6774;48.208;10.766;2022-08-30T01:24:28;2.07;;;1.97;;
13406;SDS011;6774;48.208;10.766;2022-08-30T01:26:57;2.10;;;2.00;;
13406;SDS011;6774;48.208;10.766;2022-08-30T01:29:25;4.43;;;4.23;;
13406;SDS011;6774;48.208;10.766;2022-08-30T01:31:54;3.40;;;3.20;;
13406;SDS011;6774;48.208;10.766;2022-08-30T01:34:22;4.30;;;4.10;;
13406;SDS011;6774;48.208;10.766;2022-08-30T01:36:50;3.87;;;3.67;;
13406;SDS011;6774;48.208;10.766;2022-08-30T01:39:18;4.73;;;4.43;;
13406;SDS011;6774;48.208;10.766;2022-08-30T01:41:47;4.70;;;4.40;;
13406;SDS011;6774;48.208;10.766;2022-08-30T01:44:15;3.97;;;3.77;;
13406;SDS011;6774;48.208;10.766;2022-08-30T01:46:44;5.30;;;4.53;;
13406;SDS011;6774;48.208;10.766;2022-08-30T01:49:15;4.73;;;3.80;;
13406;SDS011;6774;48.208;10.766;2022-08-30T01:51:53;4.23;;;4.03;;
13406;SDS011;6774;48.208;10.766;2022-08-30T01:54:26;3.43;;;3.23;;
13406;SDS011;6774;48.208;10.766;2022-08-30T01:57:04;3.30;;;3.17;;
13406;SDS011;6774;48.208;10.766;2022-08-30T01:59:33;4.43;;;4.13;;
13406;SDS011;6774;48.208;10.766;2022-08-30T02:02:01;2.90;;;2.80;;
13406;SDS011;6774;48.208;10.766;2022-08-30T02:04:29;3.70;;;3.53;;
13406;SDS011;6774;48.208;10.766;2022-08-30T02:06:58;3.07;;;2.97;;
13406;SDS011;6774;48.208;10.766;2022-08-30T02:09:26;4.07;;;3.87;;
13406;SDS011;6774;48.208;10.766;2022-08-30T02:11:54;3.27;;;3.10;;
13406;SDS011;6774;48.208;10.766;2022-08-30T02:14:24;3.10;;;3.00;;
13406;SDS011;6774;48.208;10.766;2022-08-30T02:16:53;2.70;;;2.60;;
13406;SDS011;6774;48.208;10.766;2022-08-30T02:19:20;3.40;;;3.10;;
13406;SDS011;6774;48.208;10.766;2022-08-30T02:21:49;3.77;;;3.57;;
13406;SDS011;6774;48.208;10.766;2022-08-30T02:24:17;3.33;;;3.23;;
13406;SDS011;6774;48.208;10.766;2022-08-30T02:26:45;4.33;;;4.03;;
13406;SDS011;6774;48.208;10.766;2022-08-30T02:29:14;5.17;;;4.87;;
13406;SDS011;6774;48.208;10.766;2022-08-30T02:31:43;5.20;;;4.90;;
13406;SDS011;6774;48.208;10.766;2022-08-30T02:34:12;6.47;;;6.07;;
13406;SDS011;6774;48.208;10.766;2022-08-30T02:36:40;4.90;;;4.70;;
13406;SDS011;6774;48.208;10.766;2022-08-30T02:39:08;5.57;;;5.27;;
13406;SDS011;6774;48.208;10.766;2022-08-30T02:41:37;6.37;;;5.80;;
13406;SDS011;6774;48.208;10.766;2022-08-30T02:44:06;4.97;;;4.67;;
13406;SDS011;6774;48.208;10.766;2022-08-30T02:46:34;4.73;;;4.43;;
13406;SDS011;6774;48.208;10.766;2022-08-30T02:49:03;5.23;;;4.93;;
13406;SDS011;6774;48.208;10.766;2022-08-30T02:51:54;4.53;;;4.33;;
13406;SDS011;6774;48.208;10.766;2022-08-30T02:54:22;2.73;;;2.60;;
13406;SDS011;6774;48.208;10.766;2022-08-30T02:56:50;2.20;;;2.10;;
13406;SDS011;6774;48.208;10.766;2022-08-30T02:59:18;2.20;;;2.10;;
13406;SDS011;6774;48.208;10.766;2022-08-30T03:01:46;2.63;;;2.53;;
13406;SDS011;6774;48.208;10.766;2022-08-30T03:04:15;1.50;;;1.40;;
13406;SDS011;6774;48.208;10.766;2022-08-30T03:06:52;2.40;;;2.30;;
13406;SDS011;6774;48.208;10.766;2022-08-30T03:09:20;2.47;;;2.37;;
13406;SDS011;6774;48.208;10.766;2022-08-30T03:11:47;2.37;;;2.27;;
13406;SDS011;6774;48.208;10.766;2022-08-30T03:14:15;2.77;;;2.67;;
13406;SDS011;6774;48.208;10.766;2022-08-30T03:16:43;3.27;;;3.07;;
13406;SDS011;6774;48.208;10.766;2022-08-30T03:19:11;2.87;;;2.60;;
13406;SDS011;6774;48.208;10.766;2022-08-30T03:21:40;2.10;;;2.00;;
13406;SDS011;6774;48.208;10.766;2022-08-30T03:24:09;1.50;;;1.50;;
13406;SDS011;6774;48.208;10.766;2022-08-30T03:26:38;1.80;;;1.70;;
13406;SDS011;6774;48.208;10.766;2022-08-30T03:29:11;2.30;;;2.20;;
13406;SDS011;6774;48.208;10.766;2022-08-30T03:31:39;1.47;;;1.47;;
13406;SDS011;6774;48.208;10.766;2022-08-30T03:34:19;2.80;;;2.70;;
13406;SDS011;6774;48.208;10.766;2022-08-30T03:36:48;2.73;;;2.63;;
13406;SDS011;6774;48.208;10.766;2022-08-30T03:39:17;3.77;;;3.57;;
13406;SDS011;6774;48.208;10.766;2022-08-30T03:41:46;3.97;;;3.77;;
13406;SDS011;6774;48.208;10.766;2022-08-30T03:44:14;2.43;;;2.33;;
13406;SDS011;6774;48.208;10.766;2022-08-30T03:46:42;1.93;;;1.83;;
13406;SDS011;6774;48.208;10.766;2022-08-30T03:49:10;1.93;;;1.83;;
13406;SDS011;6774;48.208;10.766;2022-08-30T03:51:38;1.70;;;1.70;;
13406;SDS011;6774;48.208;10.766;2022-08-30T03:54:07;1.90;;;1.80;;
13406;SDS011;6774;48.208;10.766;2022-08-30T03:56:36;1.83;;;1.73;;
13406;SDS011;6774;48.208;10.766;2022-08-30T03:59:04;1.23;;;1.23;;
13406;SDS011;6774;48.208;10.766;2022-08-30T04:01:32;1.20;;;1.20;;
13406;SDS011;6774;48.208;10.766;2022-08-30T04:04:00;2.00;;;1.90;;
13406;SDS011;6774;48.208;10.766;2022-08-30T04:06:29;2.00;;;1.90;;
13406;SDS011;6774;48.208;10.766;2022-08-30T04:08:57;3.77;;;3.57;;
13406;SDS011;6774;48.208;10.766;2022-08-30T04:11:26;3.70;;;3.50;;
13406;SDS011;6774;48.208;10.766;2022-08-30T04:13:54;3.93;;;3.73;;
13406;SDS011;6774;48.208;10.766;2022-08-30T04:16:23;3.87;;;3.67;;
13406;SDS011;6774;48.208;10.766;2022-08-30T04:18:52;4.27;;;4.07;;
13406;SDS011;6774;48.208;10.766;2022-08-30T04:21:20;3.00;;;2.90;;
13406;SDS011;6774;48.208;10.766;2022-08-30T04:23:48;3.47;;;3.37;;
13406;SDS011;6774;48.208;10.766;2022-08-30T04:26:16;3.63;;;3.43;;
13406;SDS011;6774;48.208;10.766;2022-08-30T04:28:46;3.97;;;3.73;;
13406;SDS011;6774;48.208;10.766;2022-08-30T04:31:15;3.63;;;3.43;;
13406;SDS011;6774;48.208;10.766;2022-08-30T04:33:44;4.00;;;3.77;;
13406;SDS011;6774;48.208;10.766;2022-08-30T04:36:12;5.10;;;4.80;;
13406;SDS011;6774;48.208;10.766;2022-08-30T04:38:40;5.17;;;4.97;;
13406;SDS011;6774;48.208;10.766;2022-08-30T04:41:09;5.60;;;5.20;;
13406;SDS011;6774;48.208;10.766;2022-08-30T04:43:38;5.60;;;5.30;;
13406;SDS011;6774;48.208;10.766;2022-08-30T04:46:07;6.30;;;5.90;;
13406;SDS011;6774;48.208;10.766;2022-08-30T04:48:36;4.00;;;3.80;;
13406;SDS011;6774;48.208;10.766;2022-08-30T04:51:05;4.70;;;4.50;;
13406;SDS011;6774;48.208;10.766;2022-08-30T04:53:33;4.53;;;4.07;;
13406;SDS011;6774;48.208;10.766;2022-08-30T04:56:05;3.70;;;3.50;;
13406;SDS011;6774;48.208;10.766;2022-08-30T04:58:34;4.67;;;4.37;;
13406;SDS011;6774;48.208;10.766;2022-08-30T05:01:02;4.63;;;4.43;;
13406;SDS011;6774;48.208;10.766;2022-08-30T05:03:32;6.27;;;5.77;;
13406;SDS011;6774;48.208;10.766;2022-08-30T05:06:00;8.07;;;4.50;;
13406;SDS011;6774;48.208;10.766;2022-08-30T05:08:28;4.63;;;4.43;;
13406;SDS011;6774;48.208;10.766;2022-08-30T05:10:55;4.03;;;3.83;;
13406;SDS011;6774;48.208;10.766;2022-08-30T05:13:23;6.60;;;6.20;;
13406;SDS011;6774;48.208;10.766;2022-08-30T05:16:03;8.20;;;7.43;;
13406;SDS011;6774;48.208;10.766;2022-08-30T05:18:34;5.87;;;5.57;;
13406;SDS011;6774;48.208;10.766;2022-08-30T05:21:04;6.17;;;5.73;;
13406;SDS011;6774;48.208;10.766;2022-08-30T05:23:34;5.03;;;4.73;;
13406;SDS011;6774;48.208;10.766;2022-08-30T05:26:05;6.33;;;5.93;;
13406;SDS011;6774;48.208;10.766;2022-08-30T05:28:34;6.17;;;5.77;;
13406;SDS011;6774;48.208;10.766;2022-08-30T05:31:02;5.07;;;4.77;;
13406;SDS011;6774;48.208;10.766;2022-08-30T05:33:41;6.23;;;5.73;;
13406;SDS011;6774;48.208;10.766;2022-08-30T05:36:09;7.53;;;7.13;;
13406;SDS011;6774;48.208;10.766;2022-08-30T05:38:37;8.10;;;7.53;;
13406;SDS011;6774;48.208;10.766;2022-08-30T05:41:07;8.57;;;8.00;;
13406;SDS011;6774;48.208;10.766;2022-08-30T05:43:36;6.20;;;5.80;;
13406;SDS011;6774;48.208;10.766;2022-08-30T05:46:05;7.77;;;7.17;;
13406;SDS011;6774;48.208;10.766;2022-08-30T05:48:34;8.60;;;7.97;;
13406;SDS011;6774;48.208;10.766;2022-08-30T05:51:06;8.67;;;8.10;;
13406;SDS011;6774;48.208;10.766;2022-08-30T05:53:36;6.83;;;6.40;;
13406;SDS011;6774;48.208;10.766;2022-08-30T05:56:06;8.77;;;8.03;;
13406;SDS011;6774;48.208;10.766;2022-08-30T05:58:35;8.80;;;8.20;;
13406;SDS011;6774;48.208;10.766;2022-08-30T06:01:04;6.87;;;6.30;;
13406;SDS011;6774;48.208;10.766;2022-08-30T06:03:32;7.43;;;6.90;;
13406;SDS011;6774;48.208;10.766;2022-08-30T06:06:00;7.53;;;7.07;;
13406;SDS011;6774;48.208;10.766;2022-08-30T06:08:30;6.80;;;6.40;;
13406;SDS011;6774;48.208;10.766;2022-08-30T06:10:57;7.13;;;6.70;;
13406;SDS011;6774;48.208;10.766;2022-08-30T06:13:25;7.00;;;6.50;;
13406;SDS011;6774;48.208;10.766;2022-08-30T06:15:53;7.63;;;7.10;;
13406;SDS011;6774;48.208;10.766;2022-08-30T06:18:21;6.37;;;5.97;;
13406;SDS011;6774;48.208;10.766;2022-08-30T06:20:54;4.93;;;4.63;;
13406;SDS011;6774;48.208;10.766;2022-08-30T06:23:21;5.23;;;4.87;;
13406;SDS011;6774;48.208;10.766;2022-08-30T06:25:51;6.57;;;6.27;;
13406;SDS011;6774;48.208;10.766;2022-08-30T06:28:18;7.60;;;7.03;;
13406;SDS011;6774;48.208;10.766;2022-08-30T06:30:46;6.33;;;5.90;;
13406;SDS011;6774;48.208;10.766;2022-08-30T06:33:14;9.20;;;6.97;;
13406;SDS011;6774;48.208;10.766;2022-08-30T06:35:42;5.87;;;5.57;;
13406;SDS011;6774;48.208;10.766;2022-08-30T06:38:24;7.67;;;6.37;;
13406;SDS011;6774;48.208;10.766;2022-08-30T06:40:54;5.87;;;5.50;;
13406;SDS011;6774;48.208;10.766;2022-08-30T06:43:22;8.17;;;7.57;;
13406;SDS011;6774;48.208;10.766;2022-08-30T06:45:50;6.90;;;6.40;;
13406;SDS011;6774;48.208;10.766;2022-08-30T06:48:18;6.93;;;6.53;;
13406;SDS011;6774;48.208;10.766;2022-08-30T06:50:51;7.10;;;6.70;;
13406;SDS011;6774;48.208;10.766;2022-08-30T06:53:19;6.03;;;5.50;;
13406;SDS011;6774;48.208;10.766;2022-08-30T06:55:55;5.23;;;4.87;;
13406;SDS011;6774;48.208;10.766;2022-08-30T06:58:23;6.87;;;6.23;;
13406;SDS011;6774;48.208;10.766;2022-08-30T07:00:51;5.87;;;5.23;;
13406;SDS011;6774;48.208;10.766;2022-08-30T07:03:19;6.70;;;6.37;;
13406;SDS011;6774;48.208;10.766;2022-08-30T07:05:47;4.90;;;4.70;;
13406;SDS011;6774;48.208;10.766;2022-08-30T07:08:16;5.73;;;5.43;;
13406;SDS011;6774;48.208;10.766;2022-08-30T07:10:44;6.67;;;6.37;;
13406;SDS011;6774;48.208;10.766;2022-08-30T07:13:14;7.37;;;6.97;;
13406;SDS011;6774;48.208;10.766;2022-08-30T07:15:43;7.53;;;6.97;;
13406;SDS011;6774;48.208;10.766;2022-08-30T07:18:12;7.70;;;7.20;;
13406;SDS011;6774;48.208;10.766;2022-08-30T07:20:58;8.07;;;7.47;;
13406;SDS011;6774;48.208;10.766;2022-08-30T07:23:32;8.10;;;7.60;;
13406;SDS011;6774;48.208;10.766;2022-08-30T07:26:02;6.80;;;6.40;;
13406;SDS011;6774;48.208;10.766;2022-08-30T07:28:33;7.87;;;7.27;;
13406;SDS011;6774;48.208;10.766;2022-08-30T07:31:03;8.07;;;7.57;;
13406;SDS011;6774;48.208;10.766;2022-08-30T07:33:37;7.63;;;7.13;;
13406;SDS011;6774;48.208;10.766;2022-08-30T07:36:06;7.70;;;7.20;;
13406;SDS011;6774;48.208;10.766;2022-08-30T07:38:34;8.10;;;7.30;;
13406;SDS011;6774;48.208;10.766;2022-08-30T07:41:02;7.80;;;7.20;;
13406;SDS011;6774;48.208;10.766;2022-08-30T07:43:35;9.40;;;8.70;;
13406;SDS011;6774;48.208;10.766;2022-08-30T07:46:04;8.47;;;7.97;;
13406;SDS011;6774;48.208;10.766;2022-08-30T07:48:34;8.23;;;7.50;;
13406;SDS011;6774;48.208;10.766;2022-08-30T07:51:02;6.77;;;6.47;;
13406;SDS011;6774;48.208;10.766;2022-08-30T07:53:31;7.00;;;6.50;;
13406;SDS011;6774;48.208;10.766;2022-08-30T07:55:59;6.80;;;6.40;;
13406;SDS011;6774;48.208;10.766;2022-08-30T07:58:30;6.20;;;5.90;;
13406;SDS011;6774;48.208;10.766;2022-08-30T08:00:59;10.73;;;7.67;;
13406;SDS011;6774;48.208;10.766;2022-08-30T08:03:27;7.77;;;7.03;;
13406;SDS011;6774;48.208;10.766;2022-08-30T08:05:55;6.70;;;6.20;;
13406;SDS011;6774;48.208;10.766;2022-08-30T08:08:24;8.03;;;7.43;;
13406;SDS011;6774;48.208;10.766;2022-08-30T08:10:52;6.50;;;6.10;;
13406;SDS011;6774;48.208;10.766;2022-08-30T08:13:20;7.17;;;6.73;;
13406;SDS011;6774;48.208;10.766;2022-08-30T08:15:53;6.63;;;6.13;;
13406;SDS011;6774;48.208;10.766;2022-08-30T08:18:22;5.90;;;5.40;;
13406;SDS011;6774;48.208;10.766;2022-08-30T08:20:50;6.30;;;5.90;;
13406;SDS011;6774;48.208;10.766;2022-08-30T08:23:20;5.37;;;5.07;;
13406;SDS011;6774;48.208;10.766;2022-08-30T08:25:48;6.17;;;5.67;;
13406;SDS011;6774;48.208;10.766;2022-08-30T08:28:16;5.93;;;5.60;;
13406;SDS011;6774;48.208;10.766;2022-08-30T08:30:44;5.73;;;5.37;;
13406;SDS011;6774;48.208;10.766;2022-08-30T08:33:13;6.17;;;5.57;;
13406;SDS011;6774;48.208;10.766;2022-08-30T08:35:42;5.37;;;5.07;;
13406;SDS011;6774;48.208;10.766;2022-08-30T08:38:10;10.37;;;6.73;;
13406;SDS011;6774;48.208;10.766;2022-08-30T08:40:40;4.93;;;4.63;;
13406;SDS011;6774;48.208;10.766;2022-08-30T08:43:16;5.03;;;4.80;;
13406;SDS011;6774;48.208;10.766;2022-08-30T08:45:48;4.90;;;4.47;;
13406;SDS011;6774;48.208;10.766;2022-08-30T08:48:26;4.85;;;4.65;;
13406;SDS011;6774;48.208;10.766;2022-08-30T08:51:20;4.93;;;4.35;;
13406;SDS011;6774;48.208;10.766;2022-08-30T08:54:09;4.50;;;4.30;;
13406;SDS011;6774;48.208;10.766;2022-08-30T08:56:39;5.07;;;4.88;;
13406;SDS011;6774;48.208;10.766;2022-08-30T08:59:07;4.93;;;4.68;;
13406;SDS011;6774;48.208;10.766;2022-08-30T09:01:37;4.80;;;4.60;;
13406;SDS011;6774;48.208;10.766;2022-08-30T09:04:07;5.55;;;5.05;;
13406;SDS011;6774;48.208;10.766;2022-08-30T09:06:44;5.28;;;4.88;;
13406;SDS011;6774;48.208;10.766;2022-08-30T09:09:19;4.53;;;4.32;;
13406;SDS011;6774;48.208;10.766;2022-08-30T09:11:50;4.20;;;3.90;;
13406;SDS011;6774;48.208;10.766;2022-08-30T09:14:22;4.18;;;3.97;;
13406;SDS011;6774;48.208;10.766;2022-08-30T09:16:56;3.83;;;3.67;;
13406;SDS011;6774;48.208;10.766;2022-08-30T09:19:36;3.92;;;3.75;;
13406;SDS011;6774;48.208;10.766;2022-08-30T09:22:16;4.53;;;4.32;;
13406;SDS011;6774;48.208;10.766;2022-08-30T09:24:49;4.15;;;3.95;;
13406;SDS011;6774;48.208;10.766;2022-08-30T09:27:20;4.32;;;4.03;;
13406;SDS011;6774;48.208;10.766;2022-08-30T09:29:52;4.45;;;4.18;;
13406;SDS011;6774;48.208;10.766;2022-08-30T09:32:30;4.32;;;4.13;;
13406;SDS011;6774;48.208;10.766;2022-08-30T09:35:00;3.67;;;3.47;;
13406;SDS011;6774;48.208;10.766;2022-08-30T09:37:32;3.92;;;3.72;;
13406;SDS011;6774;48.208;10.766;2022-08-30T09:40:11;4.38;;;4.18;;
13406;SDS011;6774;48.208;10.766;2022-08-30T09:42:41;4.97;;;4.68;;
13406;SDS011;6774;48.208;10.766;2022-08-30T09:45:28;3.72;;;3.53;;
13406;SDS011;6774;48.208;10.766;2022-08-30T09:48:00;3.90;;;3.60;;
13406;SDS011;6774;48.208;10.766;2022-08-30T09:50:47;3.58;;;3.45;;
13406;SDS011;6774;48.208;10.766;2022-08-30T09:53:24;3.00;;;2.80;;
13406;SDS011;6774;48.208;10.766;2022-08-30T09:56:02;5.00;;;3.67;;
13406;SDS011;6774;48.208;10.766;2022-08-30T09:58:42;4.35;;;4.13;;
13406;SDS011;6774;48.208;10.766;2022-08-30T10:01:26;2.58;;;2.42;;
13406;SDS011;6774;48.208;10.766;2022-08-30T10:03:58;2.53;;;2.42;;
13406;SDS011;6774;48.208;10.766;2022-08-30T10:06:33;3.45;;;3.25;;
13406;SDS011;6774;48.208;10.766;2022-08-30T10:09:13;3.33;;;3.13;;
13406;SDS011;6774;48.208;10.766;2022-08-30T10:11:50;2.60;;;2.50;;
13406;SDS011;6774;48.208;10.766;2022-08-30T10:14:29;3.08;;;2.97;;
13406;SDS011;6774;48.208;10.766;2022-08-30T10:17:09;3.35;;;3.15;;
13406;SDS011;6774;48.208;10.766;2022-08-30T10:19:59;3.25;;;3.05;;
13406;SDS011;6774;48.208;10.766;2022-08-30T10:22:34;2.45;;;2.35;;
13406;SDS011;6774;48.208;10.766;2022-08-30T10:25:09;3.35;;;2.88;;
13406;SDS011;6774;48.208;10.766;2022-08-30T10:27:42;2.75;;;2.65;;
13406;SDS011;6774;48.208;10.766;2022-08-30T10:30:15;5.90;;;3.67;;
13406;SDS011;6774;48.208;10.766;2022-08-30T10:32:46;2.65;;;2.55;;
13406;SDS011;6774;48.208;10.766;2022-08-30T10:35:20;2.90;;;2.80;;
13406;SDS011;6774;48.208;10.766;2022-08-30T10:37:51;2.80;;;2.70;;
13406;SDS011;6774;48.208;10.766;2022-08-30T10:40:24;3.38;;;3.08;;
13406;SDS011;6774;48.208;10.766;2022-08-30T10:43:13;2.55;;;2.45;;
13406;SDS011;6774;48.208;10.766;2022-08-30T10:45:48;2.90;;;2.80;;
13406;SDS011;6774;48.208;10.766;2022-08-30T10:48:20;3.22;;;3.03;;
13406;SDS011;6774;48.208;10.766;2022-08-30T10:50:53;3.10;;;2.83;;
13406;SDS011;6774;48.208;10.766;2022-08-30T10:53:27;3.88;;;3.70;;
13406;SDS011;6774;48.208;10.766;2022-08-30T10:56:01;3.05;;;2.92;;
13406;SDS011;6774;48.208;10.766;2022-08-30T10:58:32;3.05;;;2.95;;
13406;SDS011;6774;48.208;10.766;2022-08-30T11:01:13;2.90;;;2.80;;
13406;SDS011;6774;48.208;10.766;2022-08-30T11:04:09;2.80;;;2.70;;
13406;SDS011;6774;48.208;10.766;2022-08-30T11:07:01;3.00;;;2.90;;
13406;SDS011;6774;48.208;10.766;2022-08-30T11:09:41;3.30;;;3.08;;
13406;SDS011;6774;48.208;10.766;2022-08-30T11:12:23;3.25;;;3.08;;
13406;SDS011;6774;48.208;10.766;2022-08-30T11:14:57;3.60;;;3.30;;
13406;SDS011;6774;48.208;10.766;2022-08-30T11:17:27;3.50;;;3.20;;
13406;SDS011;6774;48.208;10.766;2022-08-30T11:19:59;2.78;;;2.67;;
13406;SDS011;6774;48.208;10.766;2022-08-30T11:22:29;2.80;;;2.60;;
13406;SDS011;6774;48.208;10.766;2022-08-30T11:25:07;2.55;;;2.40;;
13406;SDS011;6774;48.208;10.766;2022-08-30T11:27:41;3.13;;;3.03;;
13406;SDS011;6774;48.208;10.766;2022-08-30T11:33:26;4.93;;;2.80;;
13406;SDS011;6774;48.208;10.766;2022-08-30T11:36:11;3.35;;;2.97;;
13406;SDS011;6774;48.208;10.766;2022-08-30T11:42:31;2.30;;;2.20;;
13406;SDS011;6774;48.208;10.766;2022-08-30T11:54:33;2.10;;;2.00;;
13406;SDS011;6774;48.208;10.766;2022-08-30T11:57:09;2.92;;;2.78;;
13406;SDS011;6774;48.208;10.766;2022-08-30T11:59:46;2.38;;;2.28;;
13406;SDS011;6774;48.208;10.766;2022-08-30T12:02:43;2.80;;;2.65;;
13406;SDS011;6774;48.208;10.766;2022-08-30T12:11:50;3.10;;;2.80;;
13406;SDS011;6774;48.208;10.766;2022-08-30T12:14:33;3.03;;;2.83;;
13406;SDS011;6774;48.208;10.766;2022-08-30T12:17:10;3.17;;;3.03;;
13406;SDS011;6774;48.208;10.766;2022-08-30T12:20:00;2.78;;;2.67;;
13406;SDS011;6774;48.208;10.766;2022-08-30T12:22:30;2.85;;;2.75;;
13406;SDS011;6774;48.208;10.766;2022-08-30T12:25:11;3.13;;;2.92;;
13406;SDS011;6774;48.208;10.766;2022-08-30T12:27:44;2.30;;;2.10;;
13406;SDS011;6774;48.208;10.766;2022-08-30T12:30:12;3.30;;;3.10;;
13406;SDS011;6774;48.208;10.766;2022-08-30T12:32:43;3.83;;;3.65;;
13406;SDS011;6774;48.208;10.766;2022-08-30T12:35:18;7.00;;;3.65;;
13406;SDS011;6774;48.208;10.766;2022-08-30T12:37:55;3.88;;;3.58;;
13406;SDS011;6774;48.208;10.766;2022-08-30T12:40:25;3.08;;;2.88;;
13406;SDS011;6774;48.208;10.766;2022-08-30T12:42:57;3.08;;;2.97;;
13406;SDS011;6774;48.208;10.766;2022-08-30T12:45:28;3.13;;;2.92;;
13406;SDS011;6774;48.208;10.766;2022-08-30T12:48:01;2.90;;;2.78;;
13406;SDS011;6774;48.208;10.766;2022-08-30T12:50:34;4.07;;;2.67;;
13406;SDS011;6774;48.208;10.766;2022-08-30T12:53:04;3.78;;;2.78;;
13406;SDS011;6774;48.208;10.766;2022-08-30T12:55:48;2.63;;;2.42;;
13406;SDS011;6774;48.208;10.766;2022-08-30T12:58:32;2.63;;;2.53;;
13406;SDS011;6774;48.208;10.766;2022-08-30T13:01:12;2.95;;;2.50;;
13406;SDS011;6774;48.208;10.766;2022-08-30T13:03:57;2.67;;;2.58;;
13406;SDS011;6774;48.208;10.766;2022-08-30T13:06:39;4.95;;;4.10;;
13406;SDS011;6774;48.208;10.766;2022-08-30T13:09:16;2.65;;;2.45;;
13406;SDS011;6774;48.208;10.766;2022-08-30T13:11:50;3.42;;;3.22;;
13406;SDS011;6774;48.208;10.766;2022-08-30T13:14:20;2.88;;;2.67;;
13406;SDS011;6774;48.208;10.766;2022-08-30T13:17:06;3.70;;;3.40;;
13406;SDS011;6774;48.208;10.766;2022-08-30T13:19:36;2.80;;;2.67;;
13406;SDS011;6774;48.208;10.766;2022-08-30T13:22:21;2.90;;;2.80;;
13406;SDS011;6774;48.208;10.766;2022-08-30T13:24:52;4.15;;;3.85;;
13406;SDS011;6774;48.208;10.766;2022-08-30T13:27:21;2.92;;;2.80;;
13406;SDS011;6774;48.208;10.766;2022-08-30T13:29:49;3.50;;;3.30;;
13406;SDS011;6774;48.208;10.766;2022-08-30T13:32:17;4.60;;;4.25;;
13406;SDS011;6774;48.208;10.766;2022-08-30T13:34:45;2.80;;;2.60;;
13406;SDS011;6774;48.208;10.766;2022-08-30T13:37:15;3.22;;;3.03;;
13406;SDS011;6774;48.208;10.766;2022-08-30T13:40:07;3.08;;;2.88;;
13406;SDS011;6774;48.208;10.766;2022-08-30T13:42:36;3.70;;;3.00;;
13406;SDS011;6774;48.208;10.766;2022-08-30T13:45:05;2.80;;;2.70;;
13406;SDS011;6774;48.208;10.766;2022-08-30T13:47:53;3.42;;;3.22;;
13406;SDS011;6774;48.208;10.766;2022-08-30T13:50:22;3.35;;;3.10;;
13406;SDS011;6774;48.208;10.766;2022-08-30T13:52:54;4.32;;;3.92;;
13406;SDS011;6774;48.208;10.766;2022-08-30T13:55:21;3.58;;;3.38;;
13406;SDS011;6774;48.208;10.766;2022-08-30T13:57:49;2.95;;;2.80;;
13406;SDS011;6774;48.208;10.766;2022-08-30T14:00:19;3.10;;;3.00;;
13406;SDS011;6774;48.208;10.766;2022-08-30T14:02:49;3.05;;;2.92;;
13406;SDS011;6774;48.208;10.766;2022-08-30T14:05:21;3.08;;;2.97;;
13406;SDS011;6774;48.208;10.766;2022-08-30T14:08:13;3.22;;;2.92;;
13406;SDS011;6774;48.208;10.766;2022-08-30T14:11:01;3.70;;;3.55;;
13406;SDS011;6774;48.208;10.766;2022-08-30T14:13:31;3.58;;;3.47;;
13406;SDS011;6774;48.208;10.766;2022-08-30T14:16:00;4.35;;;4.13;;
13406;SDS011;6774;48.208;10.766;2022-08-30T14:18:53;4.00;;;3.72;;
13406;SDS011;6774;48.208;10.766;2022-08-30T14:21:22;3.10;;;2.88;;
13406;SDS011;6774;48.208;10.766;2022-08-30T14:23:51;2.45;;;2.35;;
13406;SDS011;6774;48.208;10.766;2022-08-30T14:26:20;2.83;;;2.72;;
13406;SDS011;6774;48.208;10.766;2022-08-30T14:28:51;3.35;;;3.15;;
13406;SDS011;6774;48.208;10.766;2022-08-30T14:31:19;3.38;;;3.17;;
13406;SDS011;6774;48.208;10.766;2022-08-30T14:33:47;4.00;;;3.80;;
13406;SDS011;6774;48.208;10.766;2022-08-30T14:36:15;2.90;;;2.70;;
13406;SDS011;6774;48.208;10.766;2022-08-30T14:38:43;3.10;;;2.92;;
13406;SDS011;6774;48.208;10.766;2022-08-30T14:41:12;2.47;;;2.38;;
13406;SDS011;6774;48.208;10.766;2022-08-30T14:43:40;4.40;;;4.15;;
13406;SDS011;6774;48.208;10.766;2022-08-30T14:46:09;4.03;;;3.83;;
13406;SDS011;6774;48.208;10.766;2022-08-30T14:48:37;4.75;;;4.35;;
13406;SDS011;6774;48.208;10.766;2022-08-30T14:51:12;3.53;;;3.33;;
13406;SDS011;6774;48.208;10.766;2022-08-30T14:53:42;3.50;;;3.20;;
13406;SDS011;6774;48.208;10.766;2022-08-30T14:56:11;2.80;;;2.70;;
13406;SDS011;6774;48.208;10.766;2022-08-30T14:58:46;3.47;;;3.28;;
13406;SDS011;6774;48.208;10.766;2022-08-30T15:01:14;3.80;;;3.50;;
13406;SDS011;6774;48.208;10.766;2022-08-30T15:03:42;3.65;;;2.88;;
13406;SDS011;6774;48.208;10.766;2022-08-30T15:06:10;2.95;;;2.85;;
13406;SDS011;6774;48.208;10.766;2022-08-30T15:08:38;2.58;;;2.47;;
13406;SDS011;6774;48.208;10.766;2022-08-30T15:11:07;2.58;;;2.33;;
13406;SDS011;6774;48.208;10.766;2022-08-30T15:13:38;2.72;;;2.63;;
13406;SDS011;6774;48.208;10.766;2022-08-30T15:16:11;5.70;;;2.58;;
13406;SDS011;6774;48.208;10.766;2022-08-30T15:18:41;3.03;;;2.92;;
13406;SDS011;6774;48.208;10.766;2022-08-30T15:21:09;2.42;;;2.33;;
13406;SDS011;6774;48.208;10.766;2022-08-30T15:23:37;2.95;;;2.78;;
13406;SDS011;6774;48.208;10.766;2022-08-30T15:26:06;4.10;;;3.80;;
13406;SDS011;6774;48.208;10.766;2022-08-30T15:28:35;7.95;;;3.70;;
13406;SDS011;6774;48.208;10.766;2022-08-30T15:31:04;2.53;;;2.42;;
13406;SDS011;6774;48.208;10.766;2022-08-30T15:33:34;2.47;;;2.38;;
13406;SDS011;6774;48.208;10.766;2022-08-30T15:36:03;3.47;;;3.28;;
13406;SDS011;6774;48.208;10.766;2022-08-30T15:38:31;3.10;;;2.90;;